createdAt,value
2023-04-29T00:00:23.035Z,3.56
2023-04-29T00:01:23.069Z,3.77
2023-04-29T00:02:23.301Z,3.27
2023-04-29T00:03:23.474Z,3.20
2023-04-29T00:04:23.269Z,3.63
2023-04-29T00:05:23.444Z,3.34
2023-04-29T00:06:23.416Z,2.95
2023-04-29T00:07:23.325Z,3.50
2023-04-29T00:08:23.369Z,3.73
2023-04-29T00:09:23.418Z,3.89
2023-04-29T00:10:23.464Z,3.73
2023-04-29T00:11:23.519Z,3.64
2023-04-29T00:12:23.532Z,3.59
2023-04-29T00:13:23.621Z,3.81
2023-04-29T00:14:23.652Z,3.65
2023-04-29T00:15:23.705Z,3.64
2023-04-29T00:16:23.748Z,3.94
2023-04-29T00:17:23.880Z,3.54
2023-04-29T00:18:23.834Z,3.65
2023-04-29T00:19:23.863Z,3.50
2023-04-29T00:20:23.898Z,3.49
2023-04-29T00:21:23.955Z,3.54
2023-04-29T00:22:23.998Z,4.24
2023-04-29T00:23:24.050Z,3.81
2023-04-29T00:24:24.118Z,3.41
2023-04-29T00:25:24.182Z,3.70
2023-04-29T00:26:24.198Z,3.22
2023-04-29T00:27:24.240Z,3.54
2023-04-29T00:28:24.247Z,3.87
2023-04-29T00:29:24.309Z,3.71
2023-04-29T00:30:24.383Z,3.53
2023-04-29T00:31:24.429Z,3.75
2023-04-29T00:32:24.507Z,3.39
2023-04-29T00:33:24.538Z,3.65
2023-04-29T00:34:24.567Z,3.08
2023-04-29T00:35:24.661Z,3.18
2023-04-29T00:36:24.666Z,3.32
2023-04-29T00:37:24.723Z,2.81
2023-04-29T00:38:24.749Z,3.69
2023-04-29T00:39:24.783Z,3.26
2023-04-29T00:40:24.866Z,3.80
2023-04-29T00:41:24.921Z,3.23
2023-04-29T00:42:24.957Z,3.38
2023-04-29T00:43:24.973Z,3.26
2023-04-29T00:45:17.073Z,3.36
2023-04-29T00:46:17.246Z,3.22
2023-04-29T00:47:17.145Z,3.21
2023-04-29T00:48:17.163Z,2.80
2023-04-29T00:49:17.239Z,3.11
2023-04-29T00:50:17.171Z,3.03
2023-04-29T00:51:17.141Z,3.03
2023-04-29T00:52:17.102Z,2.96
2023-04-29T00:53:17.124Z,2.50
2023-04-29T00:54:17.105Z,2.94
2023-04-29T00:55:17.095Z,2.94
2023-04-29T00:56:17.132Z,2.77
2023-04-29T00:57:17.092Z,2.90
2023-04-29T00:58:17.095Z,2.46
2023-04-29T00:59:17.072Z,2.53
2023-04-29T01:00:17.069Z,2.45
2023-04-29T01:01:17.074Z,2.89
2023-04-29T01:02:17.055Z,2.84
2023-04-29T01:03:17.232Z,2.68
2023-04-29T01:04:17.135Z,2.46
2023-04-29T01:05:17.042Z,2.95
2023-04-29T01:06:17.082Z,2.58
2023-04-29T01:07:17.044Z,2.37
2023-04-29T01:08:18.555Z,2.34
2023-04-29T01:09:16.996Z,2.64
2023-04-29T01:10:17.003Z,3.04
2023-04-29T01:11:17.008Z,2.82
2023-04-29T01:12:16.993Z,2.88
2023-04-29T01:13:16.976Z,3.31
2023-04-29T01:14:17.002Z,3.12
2023-04-29T01:15:16.970Z,3.29
2023-04-29T01:16:17.101Z,3.04
2023-04-29T01:17:16.942Z,3.61
2023-04-29T01:18:16.953Z,2.73
2023-04-29T01:19:16.965Z,2.93
2023-04-29T01:20:16.952Z,3.39
2023-04-29T01:21:16.926Z,3.08
2023-04-29T01:22:16.918Z,4.08
2023-04-29T01:23:16.995Z,3.19
2023-04-29T01:24:17.037Z,3.52
2023-04-29T01:25:17.099Z,3.72
2023-04-29T01:26:17.151Z,3.18
2023-04-29T01:27:17.185Z,3.77
2023-04-29T01:28:17.225Z,3.23
2023-04-29T01:29:17.293Z,3.03
2023-04-29T01:30:17.449Z,3.46
2023-04-29T01:31:17.471Z,3.48
2023-04-29T01:32:17.458Z,3.04
2023-04-29T01:33:17.518Z,3.48
2023-04-29T01:34:17.583Z,3.78
2023-04-29T01:35:17.811Z,3.33
2023-04-29T01:36:17.698Z,3.18
2023-04-29T01:37:17.752Z,3.66
2023-04-29T01:38:17.812Z,3.34
2023-04-29T01:39:17.877Z,3.50
2023-04-29T01:40:17.944Z,3.67
2023-04-29T01:41:17.982Z,3.57
2023-04-29T01:42:18.049Z,3.66
2023-04-29T01:43:18.100Z,3.20
2023-04-29T01:44:18.146Z,3.08
2023-04-29T01:45:18.197Z,2.91
2023-04-29T01:46:18.304Z,3.63
2023-04-29T01:47:18.334Z,3.19
2023-04-29T01:48:18.386Z,3.19
2023-04-29T01:49:18.420Z,3.09
2023-04-29T01:50:18.489Z,3.42
2023-04-29T01:51:18.551Z,3.16
2023-04-29T01:52:18.617Z,3.90
2023-04-29T01:53:18.692Z,3.06
2023-04-29T01:54:18.781Z,3.84
2023-04-29T01:55:18.836Z,3.75
2023-04-29T01:56:18.885Z,3.55
2023-04-29T01:57:18.960Z,3.32
2023-04-29T01:58:18.999Z,3.85
2023-04-29T01:59:19.035Z,3.89
2023-04-29T02:00:19.122Z,3.29
2023-04-29T02:01:19.216Z,3.74
2023-04-29T02:02:19.242Z,3.42
2023-04-29T02:03:19.390Z,3.90
2023-04-29T02:04:19.400Z,3.48
2023-04-29T02:05:19.397Z,3.55
2023-04-29T02:06:19.465Z,3.25
2023-04-29T02:07:19.525Z,3.10
2023-04-29T02:08:19.585Z,3.26
2023-04-29T02:09:19.626Z,3.93
2023-04-29T02:10:19.717Z,3.32
2023-04-29T02:11:19.728Z,3.02
2023-04-29T02:12:19.820Z,3.60
2023-04-29T02:13:19.847Z,3.60
2023-04-29T02:14:19.925Z,3.97
2023-04-29T02:15:19.991Z,3.66
2023-04-29T02:16:20.059Z,3.30
2023-04-29T02:17:20.114Z,3.02
2023-04-29T02:18:20.167Z,3.62
2023-04-29T02:19:20.246Z,3.74
2023-04-29T02:20:20.281Z,3.84
2023-04-29T02:21:20.363Z,3.85
2023-04-29T02:22:20.394Z,4.07
2023-04-29T02:23:20.446Z,4.20
2023-04-29T02:24:20.525Z,3.22
2023-04-29T02:25:20.591Z,3.82
2023-04-29T02:26:20.622Z,3.44
2023-04-29T02:27:20.721Z,3.67
2023-04-29T02:28:20.750Z,4.45
2023-04-29T02:29:20.826Z,3.74
2023-04-29T02:30:20.874Z,3.47
2023-04-29T02:31:20.970Z,3.49
2023-04-29T02:32:21.000Z,4.34
2023-04-29T02:33:21.083Z,4.08
2023-04-29T02:34:21.122Z,4.11
2023-04-29T02:35:21.185Z,3.72
2023-04-29T02:36:21.232Z,3.44
2023-04-29T02:37:21.335Z,3.32
2023-04-29T02:38:21.334Z,3.65
2023-04-29T02:39:21.423Z,4.06
2023-04-29T02:40:21.513Z,4.03
2023-04-29T02:41:21.537Z,3.02
2023-04-29T02:42:21.567Z,2.87
2023-04-29T02:43:21.661Z,3.20
2023-04-29T02:44:21.672Z,3.35
2023-04-29T02:45:21.781Z,3.62
2023-04-29T02:46:21.866Z,3.03
2023-04-29T02:47:21.867Z,2.97
2023-04-29T02:48:21.963Z,2.90
2023-04-29T02:49:22.038Z,3.44
2023-04-29T02:50:22.071Z,2.90
2023-04-29T02:51:22.123Z,3.53
2023-04-29T02:52:22.215Z,2.90
2023-04-29T02:53:22.224Z,3.33
2023-04-29T02:54:22.320Z,2.91
2023-04-29T02:55:22.374Z,3.16
2023-04-29T02:56:22.417Z,3.78
2023-04-29T02:57:22.482Z,2.91
2023-04-29T02:58:22.521Z,3.04
2023-04-29T02:59:22.557Z,3.06
2023-04-29T03:00:22.649Z,3.73
2023-04-29T03:01:22.753Z,3.42
2023-04-29T03:02:22.794Z,2.93
2023-04-29T03:03:22.895Z,3.12
2023-04-29T03:04:22.983Z,3.21
2023-04-29T03:05:22.929Z,2.58
2023-04-29T03:06:23.013Z,2.85
2023-04-29T03:07:23.082Z,3.14
2023-04-29T03:08:23.104Z,2.80
2023-04-29T03:09:23.151Z,2.93
2023-04-29T03:10:23.250Z,2.90
2023-04-29T03:11:23.290Z,3.00
2023-04-29T03:12:23.375Z,3.30
2023-04-29T03:13:23.376Z,3.02
2023-04-29T03:14:23.455Z,4.11
2023-04-29T03:15:23.513Z,3.29
2023-04-29T03:16:23.581Z,3.72
2023-04-29T03:17:23.620Z,3.45
2023-04-29T03:18:23.645Z,3.52
2023-04-29T03:19:23.706Z,3.21
2023-04-29T03:20:23.816Z,3.77
2023-04-29T03:21:23.837Z,3.32
2023-04-29T03:22:23.881Z,2.66
2023-04-29T03:23:23.924Z,3.26
2023-04-29T03:24:24.003Z,3.62
2023-04-29T03:25:24.097Z,3.36
2023-04-29T03:26:24.137Z,3.02
2023-04-29T03:27:24.164Z,3.50
2023-04-29T03:28:24.211Z,3.09
2023-04-29T03:29:24.274Z,3.19
2023-04-29T03:30:24.370Z,2.83
2023-04-29T03:31:24.410Z,2.71
2023-04-29T03:32:24.506Z,2.85
2023-04-29T03:33:24.496Z,3.00
2023-04-29T03:34:24.565Z,2.49
2023-04-29T03:35:24.613Z,2.43
2023-04-29T03:36:24.693Z,2.90
2023-04-29T03:37:24.743Z,2.47
2023-04-29T03:38:24.787Z,2.27
2023-04-29T03:39:24.840Z,2.67
2023-04-29T03:40:24.938Z,2.45
2023-04-29T03:41:24.952Z,3.01
2023-04-29T03:42:25.002Z,3.04
2023-04-29T03:43:25.084Z,2.26
2023-04-29T03:44:25.099Z,2.84
2023-04-29T03:45:25.160Z,2.67
2023-04-29T03:46:25.263Z,2.84
2023-04-29T03:47:25.288Z,2.73
2023-04-29T03:48:25.360Z,2.79
2023-04-29T03:49:25.380Z,2.47
2023-04-29T03:50:25.425Z,2.66
2023-04-29T03:51:25.501Z,2.63
2023-04-29T03:52:25.542Z,3.46
2023-04-29T03:53:25.578Z,2.57
2023-04-29T03:54:25.624Z,2.68
2023-04-29T03:55:25.713Z,2.58
2023-04-29T03:56:25.778Z,2.82
2023-04-29T03:57:25.811Z,2.67
2023-04-29T03:58:25.882Z,2.46
2023-04-29T03:59:25.937Z,2.41
2023-04-29T04:00:25.954Z,2.19
2023-04-29T04:01:26.062Z,2.79
2023-04-29T04:02:26.270Z,2.55
2023-04-29T04:03:26.286Z,2.56
2023-04-29T04:04:26.393Z,2.48
2023-04-29T04:05:26.242Z,2.65
2023-04-29T04:06:26.297Z,2.66
2023-04-29T04:07:26.309Z,3.09
2023-04-29T04:08:26.338Z,2.71
2023-04-29T04:09:26.396Z,2.67
2023-04-29T04:10:26.483Z,2.48
2023-04-29T04:11:26.543Z,2.73
2023-04-29T04:12:26.548Z,2.45
2023-04-29T04:13:26.587Z,2.27
2023-04-29T04:14:26.613Z,2.79
2023-04-29T04:15:26.649Z,2.38
2023-04-29T04:16:26.792Z,2.24
2023-04-29T04:17:26.821Z,2.32
2023-04-29T04:18:26.817Z,2.38
2023-04-29T04:19:26.827Z,2.57
2023-04-29T04:20:26.831Z,2.33
2023-04-29T04:21:26.881Z,2.76
2023-04-29T04:22:26.892Z,2.40
2023-04-29T04:23:26.941Z,2.04
2023-04-29T04:24:26.914Z,2.24
2023-04-29T04:25:26.936Z,2.47
2023-04-29T04:26:26.950Z,2.61
2023-04-29T04:27:26.985Z,1.77
2023-04-29T04:28:27.007Z,1.97
2023-04-29T04:29:27.028Z,1.78
2023-04-29T04:30:27.048Z,1.88
2023-04-29T04:31:27.160Z,1.88
2023-04-29T04:32:27.145Z,1.75
2023-04-29T04:33:27.113Z,1.79
2023-04-29T04:34:27.127Z,1.77
2023-04-29T04:35:27.162Z,2.91
2023-04-29T04:36:27.207Z,2.10
2023-04-29T04:37:27.237Z,1.89
2023-04-29T04:38:27.257Z,1.89
2023-04-29T04:39:27.264Z,1.87
2023-04-29T04:40:27.378Z,2.05
2023-04-29T04:41:27.321Z,2.02
2023-04-29T04:42:27.390Z,2.01
2023-04-29T04:43:27.384Z,1.98
2023-04-29T04:44:27.456Z,1.83
2023-04-29T04:45:27.494Z,1.63
2023-04-29T04:46:27.508Z,1.94
2023-04-29T04:47:27.512Z,1.91
2023-04-29T04:48:27.526Z,1.62
2023-04-29T04:49:27.580Z,2.05
2023-04-29T04:50:27.544Z,1.99
2023-04-29T04:51:27.578Z,1.76
2023-04-29T04:52:27.598Z,1.72
2023-04-29T04:53:27.611Z,1.70
2023-04-29T04:54:27.611Z,1.84
2023-04-29T04:55:27.648Z,2.03
2023-04-29T04:56:27.647Z,1.78
2023-04-29T04:57:27.681Z,1.79
2023-04-29T04:58:27.653Z,1.95
2023-04-29T04:59:27.676Z,1.99
2023-04-29T05:00:27.737Z,1.67
2023-04-29T05:01:27.751Z,2.04
2023-04-29T05:02:27.819Z,1.91
2023-04-29T05:03:27.886Z,2.07
2023-04-29T05:04:27.964Z,1.93
2023-04-29T05:05:27.766Z,2.10
2023-04-29T05:06:27.770Z,2.00
2023-04-29T05:07:27.796Z,1.77
2023-04-29T05:08:27.839Z,2.20
2023-04-29T05:09:27.871Z,1.86
2023-04-29T05:10:27.893Z,1.83
2023-04-29T05:11:27.960Z,2.25
2023-04-29T05:12:27.962Z,1.67
2023-04-29T05:13:27.990Z,1.92
2023-04-29T05:14:28.022Z,1.86
2023-04-29T05:15:28.050Z,1.89
2023-04-29T05:16:28.218Z,1.83
2023-04-29T05:17:28.112Z,1.99
2023-04-29T05:18:28.133Z,1.98
2023-04-29T05:19:28.186Z,1.98
2023-04-29T05:20:28.214Z,1.54
2023-04-29T05:21:28.205Z,1.88
2023-04-29T05:22:28.231Z,1.43
2023-04-29T05:23:28.245Z,1.39
2023-04-29T05:24:28.296Z,1.79
2023-04-29T05:25:28.336Z,1.59
2023-04-29T05:26:28.337Z,1.42
2023-04-29T05:27:28.363Z,1.61
2023-04-29T05:28:28.538Z,1.30
2023-04-29T05:29:28.459Z,1.52
2023-04-29T05:30:28.509Z,1.60
2023-04-29T05:31:28.773Z,1.42
2023-04-29T05:32:28.638Z,1.78
2023-04-29T05:33:28.644Z,2.01
2023-04-29T05:34:28.726Z,1.45
2023-04-29T05:35:28.786Z,1.87
2023-04-29T05:36:28.789Z,1.52
2023-04-29T05:37:28.911Z,1.76
2023-04-29T05:38:28.875Z,1.91
2023-04-29T05:39:28.902Z,1.94
2023-04-29T05:40:28.953Z,2.27
2023-04-29T05:41:28.995Z,1.84
2023-04-29T05:42:29.044Z,1.81
2023-04-29T05:43:29.159Z,1.99
2023-04-29T05:44:29.161Z,1.78
2023-04-29T05:45:29.176Z,1.69
2023-04-29T05:46:29.261Z,1.76
2023-04-29T05:47:29.235Z,1.88
2023-04-29T05:48:29.202Z,1.83
2023-04-29T05:49:29.207Z,1.71
2023-04-29T05:50:29.231Z,2.32
2023-04-29T05:51:29.185Z,1.63
2023-04-29T05:52:29.224Z,2.06
2023-04-29T05:53:29.242Z,1.75
2023-04-29T05:54:29.250Z,1.65
2023-04-29T05:55:29.216Z,2.67
2023-04-29T05:56:29.247Z,1.70
2023-04-29T05:57:29.343Z,1.97
2023-04-29T05:58:29.281Z,2.10
2023-04-29T05:59:29.300Z,2.20
2023-04-29T06:00:29.365Z,1.83
2023-04-29T06:01:29.311Z,2.16
2023-04-29T06:02:29.348Z,2.27
2023-04-29T06:03:29.565Z,2.19
2023-04-29T06:04:29.470Z,1.84
2023-04-29T06:05:29.693Z,1.91
2023-04-29T06:06:29.436Z,2.24
2023-04-29T06:07:29.341Z,1.94
2023-04-29T06:08:29.388Z,1.95
2023-04-29T06:09:29.421Z,1.46
2023-04-29T06:10:29.449Z,1.72
2023-04-29T06:11:29.444Z,1.95
2023-04-29T06:12:29.469Z,1.49
2023-04-29T06:13:29.476Z,1.82
2023-04-29T06:14:29.524Z,1.81
2023-04-29T06:15:29.576Z,1.88
2023-04-29T06:16:29.627Z,1.69
2023-04-29T06:17:29.662Z,2.21
2023-04-29T06:18:29.630Z,2.18
2023-04-29T06:19:29.663Z,2.51
2023-04-29T06:20:29.699Z,1.89
2023-04-29T06:21:29.756Z,2.15
2023-04-29T06:22:29.774Z,1.59
2023-04-29T06:23:29.785Z,1.91
2023-04-29T06:24:29.773Z,1.91
2023-04-29T06:25:29.840Z,1.81
2023-04-29T06:26:29.804Z,1.85
2023-04-29T06:27:29.857Z,1.93
2023-04-29T06:28:29.908Z,1.66
2023-04-29T06:29:29.881Z,1.98
2023-04-29T06:30:29.968Z,1.55
2023-04-29T06:31:30.081Z,1.40
2023-04-29T06:32:30.027Z,2.41
2023-04-29T06:33:30.089Z,2.13
2023-04-29T06:34:30.141Z,1.38
2023-04-29T06:35:30.222Z,1.58
2023-04-29T06:36:30.256Z,2.06
2023-04-29T06:37:30.252Z,1.55
2023-04-29T06:38:30.324Z,1.54
2023-04-29T06:39:30.363Z,1.54
2023-04-29T06:40:30.480Z,1.71
2023-04-29T06:41:30.509Z,1.28
2023-04-29T06:42:30.530Z,1.85
2023-04-29T06:43:30.600Z,1.32
2023-04-29T06:44:30.637Z,1.47
2023-04-29T06:45:30.688Z,1.56
2023-04-29T06:46:30.800Z,1.33
2023-04-29T06:47:30.885Z,1.11
2023-04-29T06:48:30.898Z,1.38
2023-04-29T06:49:30.959Z,1.53
2023-04-29T06:50:30.983Z,0.76
2023-04-29T06:51:31.070Z,1.39
2023-04-29T06:52:31.148Z,1.50
2023-04-29T06:53:31.179Z,1.30
2023-04-29T06:54:31.238Z,1.13
2023-04-29T06:55:31.287Z,0.86
2023-04-29T06:56:31.341Z,1.15
2023-04-29T06:57:31.392Z,1.07
2023-04-29T06:58:31.476Z,1.18
2023-04-29T06:59:31.525Z,1.18
2023-04-29T07:00:31.607Z,1.12
2023-04-29T07:01:31.684Z,1.42
2023-04-29T07:02:31.730Z,1.01
2023-04-29T07:03:31.829Z,1.17
2023-04-29T07:04:31.856Z,1.20
2023-04-29T07:05:31.916Z,1.00
2023-04-29T07:06:31.942Z,1.16
2023-04-29T07:07:31.981Z,1.29
2023-04-29T07:08:32.077Z,1.02
2023-04-29T07:09:32.114Z,1.09
2023-04-29T07:10:32.171Z,1.33
2023-04-29T07:11:32.196Z,1.09
2023-04-29T07:12:32.263Z,1.08
2023-04-29T07:13:32.352Z,1.27
2023-04-29T07:14:32.389Z,0.94
2023-04-29T07:15:32.434Z,1.19
2023-04-29T07:16:32.545Z,0.83
2023-04-29T07:17:32.574Z,1.03
2023-04-29T07:18:32.632Z,1.14
2023-04-29T07:19:32.676Z,0.98
2023-04-29T07:20:32.750Z,1.07
2023-04-29T07:21:32.843Z,1.19
2023-04-29T07:22:32.879Z,0.86
2023-04-29T07:23:32.930Z,1.12
2023-04-29T07:24:33.007Z,1.10
2023-04-29T07:25:33.060Z,0.92
2023-04-29T07:26:33.106Z,1.21
2023-04-29T07:27:33.227Z,0.83
2023-04-29T07:28:33.209Z,0.79
2023-04-29T07:29:33.240Z,0.84
2023-04-29T07:30:33.307Z,0.88
2023-04-29T07:31:34.350Z,1.08
2023-04-29T07:32:33.445Z,1.19
2023-04-29T07:33:33.505Z,0.87
2023-04-29T07:34:33.565Z,0.79
2023-04-29T07:35:33.638Z,0.89
2023-04-29T07:36:33.638Z,1.27
2023-04-29T07:37:33.730Z,0.93
2023-04-29T07:38:33.746Z,0.88
2023-04-29T07:39:33.842Z,0.70
2023-04-29T07:40:33.917Z,0.86
2023-04-29T07:41:33.901Z,0.97
2023-04-29T07:42:33.964Z,0.77
2023-04-29T07:43:34.021Z,0.95
2023-04-29T07:44:34.054Z,1.02
2023-04-29T07:45:34.137Z,0.91
2023-04-29T07:46:34.187Z,1.03
2023-04-29T07:47:34.256Z,0.83
2023-04-29T07:48:34.258Z,0.74
2023-04-29T07:49:34.299Z,0.88
2023-04-29T07:50:34.337Z,0.86
2023-04-29T07:51:34.395Z,1.06
2023-04-29T07:52:34.424Z,0.73
2023-04-29T07:53:34.495Z,0.77
2023-04-29T07:54:34.512Z,0.71
2023-04-29T07:55:34.597Z,0.77
2023-04-29T07:56:34.701Z,0.92
2023-04-29T07:57:34.670Z,0.77
2023-04-29T07:58:35.461Z,0.72
2023-04-29T07:59:34.745Z,1.00
2023-04-29T08:00:34.844Z,0.96
2023-04-29T08:01:34.830Z,0.91
2023-04-29T08:02:34.973Z,0.87
2023-04-29T08:03:35.567Z,0.75
2023-04-29T08:04:35.199Z,1.09
2023-04-29T08:05:35.266Z,0.74
2023-04-29T08:06:35.032Z,0.66
2023-04-29T08:07:35.101Z,0.60
2023-04-29T08:08:35.136Z,0.50
2023-04-29T08:09:35.299Z,0.83
2023-04-29T08:10:35.237Z,0.66
2023-04-29T08:11:35.241Z,0.65
2023-04-29T08:12:35.277Z,0.96
2023-04-29T08:13:35.330Z,0.74
2023-04-29T08:14:35.351Z,0.55
2023-04-29T08:15:35.401Z,0.70
2023-04-29T08:16:35.511Z,0.73
2023-04-29T08:17:35.467Z,0.69
2023-04-29T08:18:35.502Z,0.64
2023-04-29T08:19:35.556Z,0.50
2023-04-29T08:20:35.604Z,0.60
2023-04-29T08:21:35.638Z,0.97
2023-04-29T08:22:35.659Z,0.65
2023-04-29T08:23:35.908Z,0.74
2023-04-29T08:24:35.735Z,0.86
2023-04-29T08:25:35.798Z,0.68
2023-04-29T08:26:35.793Z,0.45
2023-04-29T08:27:35.799Z,0.48
2023-04-29T08:28:35.824Z,0.76
2023-04-29T08:29:35.843Z,0.81
2023-04-29T08:30:35.905Z,0.62
2023-04-29T08:31:35.997Z,0.78
2023-04-29T08:32:35.970Z,0.88
2023-04-29T08:33:35.982Z,0.60
2023-04-29T08:34:35.979Z,0.86
2023-04-29T08:35:36.041Z,0.76
2023-04-29T08:36:36.063Z,0.61
2023-04-29T08:37:36.276Z,0.83
2023-04-29T08:38:36.072Z,0.61
2023-04-29T08:39:37.076Z,0.80
2023-04-29T08:40:36.107Z,0.74
2023-04-29T08:41:36.063Z,0.75
2023-04-29T08:42:36.035Z,0.93
2023-04-29T08:43:36.075Z,0.84
2023-04-29T08:44:36.070Z,0.92
2023-04-29T08:45:36.123Z,0.81
2023-04-29T08:46:36.027Z,0.89
2023-04-29T08:47:36.050Z,0.80
2023-04-29T08:48:36.130Z,0.75
2023-04-29T08:49:36.007Z,0.84
2023-04-29T08:50:36.002Z,0.67
2023-04-29T08:51:35.978Z,0.61
2023-04-29T08:52:35.955Z,0.66
2023-04-29T08:53:35.986Z,0.75
2023-04-29T08:54:35.975Z,0.94
2023-04-29T08:55:35.975Z,0.73
2023-04-29T08:56:36.005Z,0.69
2023-04-29T08:57:35.941Z,0.78
2023-04-29T08:58:35.977Z,0.60
2023-04-29T08:59:35.937Z,0.52
2023-04-29T09:00:35.932Z,0.59
2023-04-29T09:01:36.027Z,0.90
2023-04-29T09:02:35.966Z,0.73
2023-04-29T09:03:36.096Z,0.47
2023-04-29T09:04:35.942Z,0.52
2023-04-29T09:05:35.897Z,0.67
2023-04-29T09:06:35.891Z,0.75
2023-04-29T09:07:35.863Z,0.62
2023-04-29T09:08:35.862Z,0.48
2023-04-29T09:09:35.890Z,0.65
2023-04-29T09:10:35.843Z,0.61
2023-04-29T09:11:35.880Z,0.57
2023-04-29T09:12:35.829Z,0.53
2023-04-29T09:13:35.856Z,0.38
2023-04-29T09:14:35.827Z,0.52
2023-04-29T09:15:35.820Z,0.57
2023-04-29T09:16:35.881Z,0.65
2023-04-29T09:17:35.834Z,0.45
2023-04-29T09:18:35.810Z,0.55
2023-04-29T09:19:35.845Z,0.71
2023-04-29T09:20:35.826Z,0.55
2023-04-29T09:21:35.816Z,0.64
2023-04-29T09:22:35.817Z,0.54
2023-04-29T09:23:35.845Z,0.56
2023-04-29T09:24:35.844Z,0.80
2023-04-29T09:25:35.855Z,0.51
2023-04-29T09:26:35.867Z,0.68
2023-04-29T09:27:35.878Z,0.53
2023-04-29T09:28:35.906Z,0.70
2023-04-29T09:29:35.928Z,0.52
2023-04-29T09:30:35.950Z,0.76
2023-04-29T09:31:35.999Z,0.67
2023-04-29T09:32:38.456Z,0.86
2023-04-29T09:33:36.028Z,0.77
2023-04-29T09:34:35.982Z,0.78
2023-04-29T09:35:35.964Z,0.67
2023-04-29T09:36:35.970Z,0.59
2023-04-29T09:37:35.988Z,0.69
2023-04-29T09:38:35.975Z,0.61
2023-04-29T09:39:35.975Z,0.41
2023-04-29T09:40:46.559Z,0.31
2023-04-29T09:41:36.932Z,0.63
2023-04-29T09:42:35.948Z,0.90
2023-04-29T09:43:35.912Z,0.61
2023-04-29T09:44:35.964Z,0.62
2023-04-29T09:45:35.911Z,0.96
2023-04-29T09:46:36.125Z,0.63
2023-04-29T09:47:36.085Z,0.69
2023-04-29T09:48:35.893Z,0.61
2023-04-29T09:49:35.941Z,0.68
2023-04-29T09:50:35.989Z,0.43
2023-04-29T09:51:36.049Z,0.57
2023-04-29T09:52:36.071Z,0.73
2023-04-29T09:53:36.113Z,0.52
2023-04-29T09:54:36.178Z,0.43
2023-04-29T09:55:36.233Z,0.54
2023-04-29T09:56:36.318Z,0.53
2023-04-29T09:57:36.318Z,0.54
2023-04-29T09:58:36.399Z,0.54
2023-04-29T09:59:36.458Z,0.50
2023-04-29T10:00:36.516Z,0.57
2023-04-29T10:01:36.589Z,0.48
2023-04-29T10:02:36.633Z,0.59
2023-04-29T10:03:36.940Z,0.75
2023-04-29T10:04:38.794Z,0.54
2023-04-29T10:05:36.680Z,0.48
2023-04-29T10:06:36.686Z,0.67
2023-04-29T10:07:36.677Z,0.55
2023-04-29T10:08:36.691Z,0.68
2023-04-29T10:09:36.709Z,0.73
2023-04-29T10:10:36.637Z,0.77
2023-04-29T10:11:36.648Z,0.67
2023-04-29T10:12:36.630Z,0.46
2023-04-29T10:13:36.689Z,0.52
2023-04-29T10:14:36.640Z,0.58
2023-04-29T10:15:36.714Z,0.48
2023-04-29T10:16:36.707Z,0.70
2023-04-29T10:17:36.609Z,0.49
2023-04-29T10:18:36.640Z,0.50
2023-04-29T10:19:36.586Z,0.66
2023-04-29T10:20:36.561Z,0.65
2023-04-29T10:21:36.592Z,0.56
2023-04-29T10:22:36.551Z,0.59
2023-04-29T10:23:36.570Z,0.80
2023-04-29T10:24:36.544Z,0.69
2023-04-29T10:25:36.521Z,0.81
2023-04-29T10:26:36.552Z,0.63
2023-04-29T10:27:36.528Z,0.51
2023-04-29T10:28:36.505Z,0.54
2023-04-29T10:29:36.496Z,0.60
2023-04-29T10:30:36.534Z,0.60
2023-04-29T10:31:36.550Z,0.44
2023-04-29T10:32:49.816Z,0.79
2023-04-29T10:33:37.611Z,0.69
2023-04-29T10:34:36.484Z,0.63
2023-04-29T10:35:36.458Z,0.68
2023-04-29T10:36:37.011Z,0.57
2023-04-29T10:37:36.464Z,0.61
2023-04-29T10:38:36.475Z,0.57
2023-04-29T10:39:36.445Z,0.60
2023-04-29T10:40:36.444Z,0.69
2023-04-29T10:41:36.404Z,0.74
2023-04-29T10:42:36.445Z,0.46
2023-04-29T10:43:36.487Z,0.56
2023-04-29T10:44:36.551Z,0.59
2023-04-29T10:45:36.717Z,0.53
2023-04-29T10:46:36.718Z,0.51
2023-04-29T10:47:36.736Z,0.62
2023-04-29T10:48:36.781Z,0.47
2023-04-29T10:49:36.878Z,0.55
2023-04-29T10:50:36.889Z,0.54
2023-04-29T10:51:36.972Z,0.62
2023-04-29T10:52:37.020Z,0.54
2023-04-29T10:53:37.059Z,0.55
2023-04-29T10:54:37.130Z,0.52
2023-04-29T10:55:37.178Z,0.36
2023-04-29T10:56:37.212Z,0.56
2023-04-29T10:57:37.386Z,0.64
2023-04-29T10:58:37.326Z,0.56
2023-04-29T10:59:37.474Z,0.47
2023-04-29T11:00:37.413Z,0.43
2023-04-29T11:01:37.797Z,0.48
2023-04-29T11:02:37.550Z,0.58
2023-04-29T11:03:37.704Z,0.72
2023-04-29T11:04:37.686Z,0.49
2023-04-29T11:05:37.678Z,0.56
2023-04-29T11:06:37.746Z,0.55
2023-04-29T11:07:37.739Z,0.58
2023-04-29T11:08:37.781Z,0.52
2023-04-29T11:09:37.833Z,0.41
2023-04-29T11:10:37.854Z,0.76
2023-04-29T11:11:37.928Z,0.46
2023-04-29T11:12:37.928Z,0.54
2023-04-29T11:13:37.991Z,0.42
2023-04-29T11:14:38.121Z,0.53
2023-04-29T11:15:38.078Z,0.54
2023-04-29T11:16:38.134Z,0.48
2023-04-29T11:17:38.477Z,0.77
2023-04-29T11:18:38.189Z,0.38
2023-04-29T11:19:38.192Z,0.61
2023-04-29T11:20:38.283Z,0.59
2023-04-29T11:21:38.369Z,0.68
2023-04-29T11:22:38.366Z,0.65
2023-04-29T11:23:38.364Z,0.64
2023-04-29T11:24:38.399Z,0.53
2023-04-29T11:25:39.499Z,0.55
2023-04-29T11:26:38.574Z,0.47
2023-04-29T11:27:38.580Z,0.50
2023-04-29T11:28:38.552Z,0.46
2023-04-29T11:29:38.599Z,0.66
2023-04-29T11:30:38.645Z,0.36
2023-04-29T11:31:38.889Z,0.63
2023-04-29T11:32:38.800Z,0.47
2023-04-29T11:33:38.815Z,0.49
2023-04-29T11:34:38.774Z,0.48
2023-04-29T11:35:38.824Z,0.49
2023-04-29T11:36:38.875Z,0.55
2023-04-29T11:37:38.892Z,0.74
2023-04-29T11:38:38.954Z,0.45
2023-04-29T11:39:39.001Z,0.53
2023-04-29T11:40:39.019Z,0.64
2023-04-29T11:41:39.076Z,0.62
2023-04-29T11:42:39.080Z,0.58
2023-04-29T11:43:39.113Z,0.69
2023-04-29T11:44:39.159Z,0.43
2023-04-29T11:45:39.221Z,0.93
2023-04-29T11:46:39.364Z,0.44
2023-04-29T11:47:39.298Z,0.40
2023-04-29T11:48:39.269Z,0.65
2023-04-29T11:49:39.327Z,0.42
2023-04-29T11:50:39.435Z,0.34
2023-04-29T11:51:39.391Z,0.27
2023-04-29T11:52:39.443Z,0.27
2023-04-29T11:53:39.450Z,0.40
2023-04-29T11:54:39.512Z,0.56
2023-04-29T11:55:39.537Z,0.44
2023-04-29T11:56:39.642Z,0.41
2023-04-29T11:57:39.599Z,0.54
2023-04-29T11:58:39.638Z,0.38
2023-04-29T11:59:39.684Z,0.80
2023-04-29T12:00:39.738Z,0.67
2023-04-29T12:01:39.767Z,0.55
2023-04-29T12:02:39.925Z,0.41
2023-04-29T12:03:39.987Z,0.68
2023-04-29T12:04:40.034Z,0.35
2023-04-29T12:05:40.061Z,0.40
2023-04-29T12:06:39.992Z,0.42
2023-04-29T12:07:40.017Z,0.67
2023-04-29T12:08:39.988Z,0.34
2023-04-29T12:09:40.023Z,0.46
2023-04-29T12:10:40.057Z,0.44
2023-04-29T12:11:40.137Z,0.60
2023-04-29T12:12:40.136Z,0.33
2023-04-29T12:13:40.156Z,0.39
2023-04-29T12:14:40.174Z,0.58
2023-04-29T12:15:40.418Z,0.39
2023-04-29T12:16:40.289Z,0.39
2023-04-29T12:17:40.385Z,0.41
2023-04-29T12:18:40.315Z,0.52
2023-04-29T12:19:40.315Z,0.39
2023-04-29T12:20:40.352Z,0.51
2023-04-29T12:21:40.397Z,0.39
2023-04-29T12:22:40.447Z,0.33
2023-04-29T12:23:40.406Z,0.35
2023-04-29T12:24:40.447Z,0.49
2023-04-29T12:25:40.464Z,0.44
2023-04-29T12:26:40.537Z,0.58
2023-04-29T12:27:40.551Z,0.42
2023-04-29T12:28:40.548Z,0.28
2023-04-29T12:29:40.575Z,0.41
2023-04-29T12:30:40.594Z,0.53
2023-04-29T12:31:40.706Z,0.36
2023-04-29T12:32:40.693Z,0.41
2023-04-29T12:33:40.686Z,0.28
2023-04-29T12:34:40.775Z,0.37
2023-04-29T12:35:40.715Z,0.47
2023-04-29T12:36:40.740Z,0.38
2023-04-29T12:37:40.851Z,0.49
2023-04-29T12:38:40.842Z,0.67
2023-04-29T12:39:40.870Z,0.61
2023-04-29T12:40:40.875Z,0.44
2023-04-29T12:41:40.908Z,0.43
2023-04-29T12:42:40.912Z,0.63
2023-04-29T12:43:40.967Z,0.42
2023-04-29T12:44:41.056Z,0.28
2023-04-29T12:45:40.995Z,0.49
2023-04-29T12:46:41.084Z,0.61
2023-04-29T12:47:41.044Z,0.65
2023-04-29T12:48:41.709Z,0.38
2023-04-29T12:49:41.079Z,0.57
2023-04-29T12:50:41.110Z,0.42
2023-04-29T12:51:41.074Z,0.76
2023-04-29T12:52:41.145Z,0.56
2023-04-29T12:53:41.097Z,0.60
2023-04-29T12:54:41.196Z,0.46
2023-04-29T12:55:41.330Z,0.44
2023-04-29T12:56:41.432Z,0.29
2023-04-29T12:57:41.491Z,0.47
2023-04-29T12:58:41.643Z,0.57
2023-04-29T12:59:41.637Z,0.41
2023-04-29T13:00:41.502Z,0.47
2023-04-29T13:01:41.698Z,0.63
2023-04-29T13:02:41.852Z,0.51
2023-04-29T13:03:41.902Z,0.36
2023-04-29T13:04:43.763Z,0.47
2023-04-29T13:05:42.020Z,0.71
2023-04-29T13:06:41.855Z,0.57
2023-04-29T13:07:41.897Z,0.45
2023-04-29T13:08:41.936Z,0.57
2023-04-29T13:09:41.955Z,0.46
2023-04-29T13:10:41.937Z,0.67
2023-04-29T13:11:42.003Z,0.46
2023-04-29T13:12:42.040Z,0.30
2023-04-29T13:13:42.110Z,0.47
2023-04-29T13:14:42.172Z,0.42
2023-04-29T13:15:42.201Z,0.45
2023-04-29T13:16:42.377Z,0.38
2023-04-29T13:17:42.365Z,0.53
2023-04-29T13:19:51.215Z,0.64
2023-04-29T13:20:43.450Z,0.40